Time,TemperatureF,DewpointF,PressureIn,WindDirection,WindDirectionDegrees,WindSpeedMPH,WindSpeedGustMPH,Humidity,HourlyPrecipIn,Conditions,Clouds,dailyrainin,SoftwareType,DateUTC
2013-04-02 00:02:00,66.0,43.0,29.89,NW,326,4.0,6.0,44,0.00,,,0.00,,2013-04-02 07:02:00,
2013-04-02 00:11:00,66.0,43.0,29.89,NW,326,4.0,6.0,44,0.00,,,0.00,,2013-04-02 07:11:00,
2013-04-02 00:21:00,66.0,44.0,29.90,WNW,296,4.0,7.0,45,0.00,,,0.00,,2013-04-02 07:21:00,
2013-04-02 00:32:00,65.0,44.0,29.90,NW,322,4.0,5.0,46,0.00,,,0.00,,2013-04-02 07:32:00,
2013-04-02 00:41:00,65.0,44.0,29.90,NW,322,4.0,5.0,46,0.00,,,0.00,,2013-04-02 07:41:00,
2013-04-02 00:52:00,65.0,44.0,29.90,WNW,299,2.0,3.0,46,0.00,,,0.00,,2013-04-02 07:52:00,
2013-04-02 01:02:00,64.0,43.0,29.91,WNW,284,4.0,7.0,47,0.00,,,0.00,,2013-04-02 08:02:00,
2013-04-02 01:12:00,64.0,43.0,29.91,WNW,284,4.0,7.0,47,0.00,,,0.00,,2013-04-02 08:12:00,
2013-04-02 01:22:00,64.0,43.0,29.91,NW,318,4.0,7.0,47,0.00,,,0.00,,2013-04-02 08:22:00,
2013-04-02 01:32:00,64.0,43.0,29.91,NW,316,2.0,8.0,47,0.00,,,0.00,,2013-04-02 08:32:00,
2013-04-02 01:42:00,64.0,43.0,29.91,NW,316,2.0,8.0,47,0.00,,,0.00,,2013-04-02 08:42:00,
2013-04-02 01:52:00,64.0,44.0,29.91,NW,313,6.0,11.0,48,0.00,,,0.00,,2013-04-02 08:52:00,
2013-04-02 02:01:00,63.0,43.0,29.91,WNW,293,5.0,9.0,48,0.00,,,0.00,,2013-04-02 09:01:00,
2013-04-02 02:12:00,63.0,43.0,29.91,WNW,293,5.0,9.0,48,0.00,,,0.00,,2013-04-02 09:12:00,
2013-04-02 02:22:00,63.0,44.0,29.91,WNW,296,3.0,5.0,49,0.00,,,0.00,,2013-04-02 09:22:00,
2013-04-02 02:32:00,63.0,44.0,29.91,West,280,4.0,11.0,50,0.00,,,0.00,,2013-04-02 09:32:00,
2013-04-02 02:42:00,63.0,44.0,29.91,West,280,4.0,11.0,50,0.00,,,0.00,,2013-04-02 09:42:00,
2013-04-02 02:52:00,62.0,43.0,29.91,West,266,5.0,7.0,50,0.00,,,0.00,,2013-04-02 09:52:00,
2013-04-02 03:03:00,62.0,43.0,29.91,WSW,242,5.0,6.0,50,0.00,,,0.00,,2013-04-02 10:03:00,
2013-04-02 03:12:00,62.0,43.0,29.91,WSW,242,5.0,6.0,50,0.00,,,0.00,,2013-04-02 10:12:00,
2013-04-02 03:33:00,62.0,43.0,29.90,WNW,287,6.0,8.0,50,0.00,,,0.00,,2013-04-02 10:33:00,
2013-04-02 03:42:00,62.0,43.0,29.90,WNW,287,6.0,8.0,50,0.00,,,0.00,,2013-04-02 10:42:00,
2013-04-02 03:52:00,62.0,43.0,29.91,WNW,283,3.0,5.0,50,0.00,,,0.00,,2013-04-02 10:52:00,
2013-04-02 04:02:00,62.0,43.0,29.90,West,265,2.0,5.0,50,0.00,,,0.00,,2013-04-02 11:02:00,
2013-04-02 04:11:00,62.0,43.0,29.90,West,265,2.0,5.0,50,0.00,,,0.00,,2013-04-02 11:11:00,
2013-04-02 04:22:00,61.0,42.0,29.90,NNW,330,2.0,5.0,50,0.00,,,0.00,,2013-04-02 11:22:00,
2013-04-02 04:32:00,61.0,43.0,29.90,West,276,2.0,5.0,51,0.00,,,0.00,,2013-04-02 11:32:00,
2013-04-02 04:42:00,61.0,43.0,29.90,West,276,2.0,5.0,51,0.00,,,0.00,,2013-04-02 11:42:00,
2013-04-02 04:52:00,61.0,42.0,29.90,WNW,290,2.0,4.0,50,0.00,,,0.00,,2013-04-02 11:52:00,
2013-04-02 05:02:00,61.0,44.0,29.91,WNW,299,2.0,7.0,53,0.00,,,0.00,,2013-04-02 12:02:00,
2013-04-02 05:11:00,61.0,44.0,29.91,WNW,299,2.0,7.0,53,0.00,,,0.00,,2013-04-02 12:11:00,
2013-04-02 05:22:00,61.0,45.0,29.91,NW,313,5.0,9.0,55,0.00,,,0.00,,2013-04-02 12:22:00,
2013-04-02 05:32:00,61.0,45.0,29.92,West,273,4.0,5.0,55,0.00,,,0.00,,2013-04-02 12:32:00,
2013-04-02 05:41:00,61.0,45.0,29.92,West,273,4.0,5.0,55,0.00,,,0.00,,2013-04-02 12:41:00,
2013-04-02 05:52:00,61.0,45.0,29.92,NW,323,4.0,8.0,55,0.00,,,0.00,,2013-04-02 12:52:00,
2013-04-02 06:01:00,61.0,46.0,29.93,WNW,284,3.0,6.0,57,0.00,,,0.00,,2013-04-02 13:01:00,
2013-04-02 06:11:00,61.0,46.0,29.93,WNW,299,5.0,6.0,58,0.00,,,0.00,,2013-04-02 13:11:00,
2013-04-02 06:22:00,61.0,46.0,29.93,WNW,299,5.0,6.0,58,0.00,,,0.00,,2013-04-02 13:22:00,
2013-04-02 06:32:00,61.0,46.0,29.93,NW,308,4.0,6.0,58,0.00,,,0.00,,2013-04-02 13:32:00,
2013-04-02 06:42:00,61.0,46.0,29.93,NW,308,4.0,6.0,58,0.00,,,0.00,,2013-04-02 13:42:00,
2013-04-02 06:52:00,61.0,47.0,29.94,WSW,253,3.0,5.0,59,0.00,,,0.00,,2013-04-02 13:52:00,
2013-04-02 07:02:00,61.0,47.0,29.95,WNW,288,4.0,6.0,60,0.00,,,0.00,,2013-04-02 14:02:00,
2013-04-02 07:11:00,61.0,47.0,29.95,WNW,288,4.0,6.0,60,0.00,,,0.00,,2013-04-02 14:11:00,
2013-04-02 07:22:00,61.0,47.0,29.95,WNW,302,2.0,6.0,60,0.00,,,0.00,,2013-04-02 14:22:00,
2013-04-02 07:32:00,64.0,47.0,29.95,WNW,303,5.0,8.0,55,0.00,,,0.00,,2013-04-02 14:32:00,
2013-04-02 07:42:00,64.0,47.0,29.95,WNW,303,5.0,8.0,55,0.00,,,0.00,,2013-04-02 14:42:00,
2013-04-02 07:52:00,66.0,49.0,29.95,NW,309,4.0,8.0,54,0.00,,,0.00,,2013-04-02 14:52:00,
2013-04-02 08:02:00,67.0,49.0,29.96,WNW,287,4.0,10.0,53,0.00,,,0.00,,2013-04-02 15:02:00,
2013-04-02 08:21:00,68.0,49.0,29.96,West,267,6.0,9.0,51,0.00,,,0.00,,2013-04-02 15:21:00,
2013-04-02 08:33:00,70.0,49.0,29.96,WNW,297,4.0,7.0,48,0.00,,,0.00,,2013-04-02 15:33:00,
2013-04-02 08:53:00,71.0,50.0,29.96,NW,304,4.0,9.0,47,0.00,,,0.00,,2013-04-02 15:53:00,
2013-04-02 09:03:00,73.0,50.0,29.96,West,280,3.0,6.0,44,0.00,,,0.00,,2013-04-02 16:03:00,
2013-04-02 09:23:00,74.0,50.0,29.96,NW,315,7.0,9.0,43,0.00,,,0.00,,2013-04-02 16:23:00,
2013-04-02 09:33:00,73.0,49.0,29.96,WSW,252,4.0,8.0,43,0.00,,,0.00,,2013-04-02 16:33:00,
2013-04-02 09:52:00,75.0,50.0,29.96,West,262,6.0,9.0,41,0.00,,,0.00,,2013-04-02 16:52:00,
2013-04-02 10:03:00,75.0,48.0,29.96,WNW,292,5.0,8.0,39,0.00,,,0.00,,2013-04-02 17:03:00,
2013-04-02 10:23:00,76.0,49.0,29.96,WNW,299,3.0,6.0,38,0.00,,,0.00,,2013-04-02 17:23:00,
2013-04-02 10:33:00,79.0,47.0,29.96,NW,310,5.0,7.0,32,0.00,,,0.00,,2013-04-02 17:33:00,
2013-04-02 10:52:00,79.0,47.0,29.96,West,272,6.0,8.0,32,0.00,,,0.00,,2013-04-02 17:52:00,
2013-04-02 11:02:00,82.0,47.0,29.96,WNW,300,4.0,9.0,29,0.00,,,0.00,,2013-04-02 18:02:00,
2013-04-02 11:22:00,81.0,46.0,29.95,West,264,6.0,9.0,29,0.00,,,0.00,,2013-04-02 18:22:00,
2013-04-02 11:33:00,83.0,47.0,29.95,WSW,258,6.0,12.0,28,0.00,,,0.00,,2013-04-02 18:33:00,
2013-04-02 11:52:00,84.0,46.0,29.95,WNW,286,5.0,7.0,27,0.00,,,0.00,,2013-04-02 18:52:00,
2013-04-02 12:02:00,84.0,45.0,29.94,WSW,255,1.0,4.0,26,0.00,,,0.00,,2013-04-02 19:02:00,
2013-04-02 12:22:00,84.0,45.0,29.94,WSW,256,6.0,11.0,26,0.00,,,0.00,,2013-04-02 19:22:00,
2013-04-02 12:33:00,87.0,44.0,29.93,WNW,303,5.0,11.0,22,0.00,,,0.00,,2013-04-02 19:33:00,
2013-04-02 12:52:00,86.0,44.0,29.93,West,262,2.0,6.0,23,0.00,,,0.00,,2013-04-02 19:52:00,
2013-04-02 13:02:00,88.0,43.0,29.92,WNW,291,4.0,4.0,21,0.00,,,0.00,,2013-04-02 20:02:00,
2013-04-02 13:21:00,88.0,43.0,29.91,SW,214,6.0,9.0,21,0.00,,,0.00,,2013-04-02 20:21:00,
2013-04-02 13:32:00,89.0,43.0,29.90,WSW,241,3.0,6.0,20,0.00,,,0.00,,2013-04-02 20:32:00,
2013-04-02 13:52:00,89.0,43.0,29.90,WSW,241,3.0,6.0,20,0.00,,,0.00,,2013-04-02 20:52:00,
2013-04-02 14:02:00,89.0,43.0,29.89,NW,307,4.0,9.0,20,0.00,,,0.00,,2013-04-02 21:02:00,
2013-04-02 14:11:00,89.0,43.0,29.89,NW,307,4.0,9.0,20,0.00,,,0.00,,2013-04-02 21:11:00,
2013-04-02 14:22:00,89.0,41.0,29.88,West,274,3.0,8.0,19,0.00,,,0.00,,2013-04-02 21:22:00,
2013-04-02 14:42:00,89.0,41.0,29.87,ENE,62,0.0,2.0,19,0.00,,,0.00,,2013-04-02 21:42:00,
2013-04-02 14:53:00,88.0,33.0,29.87,North,4,5.0,7.0,14,0.00,,,0.00,,2013-04-02 21:53:00,
2013-04-02 15:03:00,88.0,35.0,29.86,North,4,1.0,3.0,15,0.00,,,0.00,,2013-04-02 22:03:00,
2013-04-02 15:12:00,88.0,35.0,29.86,North,4,1.0,3.0,15,0.00,,,0.00,,2013-04-02 22:12:00,
2013-04-02 15:22:00,88.0,31.0,29.86,North,9,4.0,8.0,13,0.00,,,0.00,,2013-04-02 22:22:00,
2013-04-02 15:33:00,89.0,38.0,29.85,West,280,5.0,9.0,17,0.00,,,0.00,,2013-04-02 22:33:00,
2013-04-02 15:42:00,89.0,38.0,29.85,West,280,5.0,9.0,17,0.00,,,0.00,,2013-04-02 22:42:00,
2013-04-02 15:52:00,88.0,33.0,29.85,SW,223,0.0,1.0,14,0.00,,,0.00,,2013-04-02 22:52:00,
2013-04-02 16:02:00,89.0,37.0,29.85,WSW,258,7.0,8.0,16,0.00,,,0.00,,2013-04-02 23:02:00,
2013-04-02 16:12:00,89.0,40.0,29.85,WSW,249,6.0,9.0,18,0.00,,,0.00,,2013-04-02 23:12:00,
2013-04-02 16:22:00,89.0,40.0,29.85,WSW,249,6.0,9.0,18,0.00,,,0.00,,2013-04-02 23:22:00,
2013-04-02 16:33:00,89.0,35.0,29.84,NNW,342,6.0,7.0,15,0.00,,,0.00,,2013-04-02 23:33:00,
2013-04-02 16:42:00,89.0,35.0,29.84,NNW,342,6.0,7.0,15,0.00,,,0.00,,2013-04-02 23:42:00,
2013-04-02 16:52:00,88.0,38.0,29.84,West,261,7.0,8.0,17,0.00,,,0.00,,2013-04-02 23:52:00,
2013-04-02 17:02:00,88.0,38.0,29.84,SSW,197,3.0,5.0,17,0.00,,,0.00,,2013-04-03 00:02:00,
2013-04-02 17:12:00,88.0,38.0,29.84,SSW,197,3.0,5.0,17,0.00,,,0.00,,2013-04-03 00:12:00,
2013-04-02 17:22:00,87.0,41.0,29.84,SW,214,10.0,13.0,20,0.00,,,0.00,,2013-04-03 00:22:00,
2013-04-02 17:32:00,87.0,41.0,29.83,SW,220,7.0,11.0,20,0.00,,,0.00,,2013-04-03 00:32:00,
2013-04-02 17:43:00,87.0,41.0,29.83,SW,220,7.0,11.0,20,0.00,,,0.00,,2013-04-03 00:43:00,
2013-04-02 17:54:00,86.0,43.0,29.83,SW,219,9.0,13.0,22,0.00,,,0.00,,2013-04-03 00:54:00,
2013-04-02 18:02:00,85.0,42.0,29.83,SSW,205,8.0,9.0,22,0.00,,,0.00,,2013-04-03 01:02:00,
2013-04-02 18:21:00,84.0,44.0,29.83,SSW,207,5.0,9.0,25,0.00,,,0.00,,2013-04-03 01:21:00,
2013-04-02 18:32:00,84.0,43.0,29.83,SW,220,4.0,7.0,24,0.00,,,0.00,,2013-04-03 01:32:00,
2013-04-02 18:53:00,82.0,45.0,29.84,SSW,204,5.0,8.0,27,0.00,,,0.00,,2013-04-03 01:53:00,
2013-04-02 19:02:00,82.0,47.0,29.84,SW,215,3.0,4.0,29,0.00,,,0.00,,2013-04-03 02:02:00,
2013-04-02 19:22:00,80.0,47.0,29.84,South,174,1.0,2.0,31,0.00,,,0.00,,2013-04-03 02:22:00,
2013-04-02 19:32:00,79.0,46.0,29.85,SW,226,1.0,2.0,31,0.00,,,0.00,,2013-04-03 02:32:00,
2013-04-02 19:53:00,77.0,46.0,29.85,SSE,160,2.0,3.0,33,0.00,,,0.00,,2013-04-03 02:53:00,
2013-04-02 20:02:00,76.0,47.0,29.85,SSE,168,1.0,2.0,36,0.00,,,0.00,,2013-04-03 03:02:00,
2013-04-02 20:22:00,75.0,47.0,29.86,SW,215,2.0,3.0,37,0.00,,,0.00,,2013-04-03 03:22:00,
2013-04-02 20:33:00,75.0,47.0,29.86,SW,227,3.0,6.0,37,0.00,,,0.00,,2013-04-03 03:33:00,
2013-04-02 20:43:00,75.0,47.0,29.86,SW,227,3.0,6.0,37,0.00,,,0.00,,2013-04-03 03:43:00,
2013-04-02 20:53:00,74.0,45.0,29.88,SW,230,1.0,1.0,36,0.00,,,0.00,,2013-04-03 03:53:00,
2013-04-02 21:02:00,74.0,45.0,29.88,SW,230,0.0,2.0,36,0.00,,,0.00,,2013-04-03 04:02:00,
2013-04-02 21:12:00,74.0,45.0,29.88,SW,230,0.0,2.0,36,0.00,,,0.00,,2013-04-03 04:12:00,
2013-04-02 21:23:00,74.0,45.0,29.88,SW,230,0.0,2.0,36,0.00,,,0.00,,2013-04-03 04:23:00,
2013-04-02 21:32:00,72.0,46.0,29.89,South,182,1.0,2.0,40,0.00,,,0.00,,2013-04-03 04:32:00,
2013-04-02 21:42:00,72.0,46.0,29.89,South,182,1.0,2.0,40,0.00,,,0.00,,2013-04-03 04:42:00,
2013-04-02 21:53:00,72.0,47.0,29.89,South,177,0.0,1.0,41,0.00,,,0.00,,2013-04-03 04:53:00,
2013-04-02 22:02:00,72.0,46.0,29.89,South,177,1.0,1.0,39,0.00,,,0.00,,2013-04-03 05:02:00,
2013-04-02 22:12:00,72.0,46.0,29.89,South,177,1.0,1.0,39,0.00,,,0.00,,2013-04-03 05:12:00,
2013-04-02 22:22:00,70.0,45.0,29.90,South,177,0.0,0.0,41,0.00,,,0.00,,2013-04-03 05:22:00,
2013-04-02 22:31:00,69.0,46.0,29.90,South,177,1.0,2.0,43,0.00,,,0.00,,2013-04-03 05:31:00,
2013-04-02 22:41:00,69.0,46.0,29.90,South,177,1.0,2.0,43,0.00,,,0.00,,2013-04-03 05:41:00,
2013-04-02 22:52:00,68.0,45.0,29.90,South,177,1.0,2.0,44,0.00,,,0.00,,2013-04-03 05:52:00,
2013-04-02 23:01:00,67.0,44.0,29.91,South,177,1.0,2.0,44,0.00,,,0.00,,2013-04-03 06:01:00,
2013-04-02 23:12:00,67.0,44.0,29.91,South,177,1.0,2.0,44,0.00,,,0.00,,2013-04-03 06:12:00,
2013-04-02 23:21:00,66.0,44.0,29.91,South,177,0.0,0.0,45,0.00,,,0.00,,2013-04-03 06:21:00,
2013-04-02 23:31:00,66.0,45.0,29.91,South,177,0.0,0.0,46,0.00,,,0.00,,2013-04-03 06:31:00,
2013-04-02 23:42:00,66.0,45.0,29.91,South,177,0.0,0.0,46,0.00,,,0.00,,2013-04-03 06:42:00,
2013-04-02 23:52:00,65.0,44.0,29.90,SE,134,0.0,2.0,47,0.00,,,0.00,,2013-04-03 06:52:00,